sensor_id;sensor_type;location;lat;lon;timestamp;P1;durP1;ratioP1;P2;durP2;ratioP2
8622;SDS011;4349;47.552;8.904;2022-08-24T00:00:12;4.90;;;4.60;;
8622;SDS011;4349;47.552;8.904;2022-08-24T00:02:40;4.60;;;4.40;;
8622;SDS011;4349;47.552;8.904;2022-08-24T00:05:09;4.83;;;4.50;;
8622;SDS011;4349;47.552;8.904;2022-08-24T00:07:40;4.57;;;4.37;;
8622;SDS011;4349;47.552;8.904;2022-08-24T00:10:09;4.50;;;4.30;;
8622;SDS011;4349;47.552;8.904;2022-08-24T00:12:38;5.00;;;4.70;;
8622;SDS011;4349;47.552;8.904;2022-08-24T00:15:07;5.00;;;4.70;;
8622;SDS011;4349;47.552;8.904;2022-08-24T00:17:35;4.47;;;4.27;;
8622;SDS011;4349;47.552;8.904;2022-08-24T00:20:03;4.60;;;4.40;;
8622;SDS011;4349;47.552;8.904;2022-08-24T00:22:31;4.60;;;4.40;;
8622;SDS011;4349;47.552;8.904;2022-08-24T00:24:59;5.13;;;4.73;;
8622;SDS011;4349;47.552;8.904;2022-08-24T00:27:28;4.87;;;4.67;;
8622;SDS011;4349;47.552;8.904;2022-08-24T00:29:56;5.10;;;4.80;;
8622;SDS011;4349;47.552;8.904;2022-08-24T00:32:24;4.87;;;4.67;;
8622;SDS011;4349;47.552;8.904;2022-08-24T00:34:54;4.90;;;4.50;;
8622;SDS011;4349;47.552;8.904;2022-08-24T00:37:24;4.97;;;4.77;;
8622;SDS011;4349;47.552;8.904;2022-08-24T00:39:52;4.60;;;4.40;;
8622;SDS011;4349;47.552;8.904;2022-08-24T00:42:19;4.60;;;4.30;;
8622;SDS011;4349;47.552;8.904;2022-08-24T00:44:48;5.10;;;4.70;;
8622;SDS011;4349;47.552;8.904;2022-08-24T00:47:18;5.13;;;4.63;;
8622;SDS011;4349;47.552;8.904;2022-08-24T00:49:48;4.33;;;4.13;;
8622;SDS011;4349;47.552;8.904;2022-08-24T00:52:21;4.40;;;4.17;;
8622;SDS011;4349;47.552;8.904;2022-08-24T00:54:51;4.10;;;3.83;;
8622;SDS011;4349;47.552;8.904;2022-08-24T00:57:20;4.63;;;4.23;;
8622;SDS011;4349;47.552;8.904;2022-08-24T00:59:51;4.07;;;3.97;;
8622;SDS011;4349;47.552;8.904;2022-08-24T01:02:20;4.63;;;4.43;;
8622;SDS011;4349;47.552;8.904;2022-08-24T01:04:51;4.87;;;4.67;;
8622;SDS011;4349;47.552;8.904;2022-08-24T01:07:20;4.70;;;4.50;;
8622;SDS011;4349;47.552;8.904;2022-08-24T01:09:49;4.87;;;4.67;;
8622;SDS011;4349;47.552;8.904;2022-08-24T01:12:17;5.33;;;5.03;;
8622;SDS011;4349;47.552;8.904;2022-08-24T01:14:45;4.60;;;4.40;;
8622;SDS011;4349;47.552;8.904;2022-08-24T01:17:14;5.20;;;4.93;;
8622;SDS011;4349;47.552;8.904;2022-08-24T01:20:05;5.30;;;4.90;;
8622;SDS011;4349;47.552;8.904;2022-08-24T01:22:46;5.30;;;5.00;;
8622;SDS011;4349;47.552;8.904;2022-08-24T01:25:19;4.90;;;4.70;;
8622;SDS011;4349;47.552;8.904;2022-08-24T01:27:47;5.30;;;5.00;;
8622;SDS011;4349;47.552;8.904;2022-08-24T01:30:16;4.80;;;4.60;;
8622;SDS011;4349;47.552;8.904;2022-08-24T01:32:56;4.67;;;4.47;;
8622;SDS011;4349;47.552;8.904;2022-08-24T01:35:24;4.80;;;4.60;;
8622;SDS011;4349;47.552;8.904;2022-08-24T01:37:51;5.03;;;4.73;;
8622;SDS011;4349;47.552;8.904;2022-08-24T01:40:22;5.43;;;5.10;;
8622;SDS011;4349;47.552;8.904;2022-08-24T01:42:52;4.50;;;4.30;;
8622;SDS011;4349;47.552;8.904;2022-08-24T01:45:20;5.43;;;5.13;;
8622;SDS011;4349;47.552;8.904;2022-08-24T01:47:47;4.83;;;4.63;;
8622;SDS011;4349;47.552;8.904;2022-08-24T01:50:16;4.67;;;4.47;;
8622;SDS011;4349;47.552;8.904;2022-08-24T01:52:43;4.87;;;4.60;;
8622;SDS011;4349;47.552;8.904;2022-08-24T01:55:32;5.67;;;5.37;;
8622;SDS011;4349;47.552;8.904;2022-08-24T01:58:00;5.23;;;4.93;;
8622;SDS011;4349;47.552;8.904;2022-08-24T02:00:29;5.50;;;4.83;;
8622;SDS011;4349;47.552;8.904;2022-08-24T02:02:56;5.30;;;4.97;;
8622;SDS011;4349;47.552;8.904;2022-08-24T02:05:24;5.23;;;5.00;;
8622;SDS011;4349;47.552;8.904;2022-08-24T02:07:52;5.10;;;4.80;;
8622;SDS011;4349;47.552;8.904;2022-08-24T02:10:21;5.10;;;4.90;;
8622;SDS011;4349;47.552;8.904;2022-08-24T02:12:52;4.77;;;4.50;;
8622;SDS011;4349;47.552;8.904;2022-08-24T02:15:25;5.00;;;4.80;;
8622;SDS011;4349;47.552;8.904;2022-08-24T02:17:54;4.73;;;4.43;;
8622;SDS011;4349;47.552;8.904;2022-08-24T02:20:23;4.97;;;4.67;;
8622;SDS011;4349;47.552;8.904;2022-08-24T02:22:51;4.67;;;4.47;;
8622;SDS011;4349;47.552;8.904;2022-08-24T02:25:19;5.00;;;4.67;;
8622;SDS011;4349;47.552;8.904;2022-08-24T02:27:47;4.63;;;4.43;;
8622;SDS011;4349;47.552;8.904;2022-08-24T02:30:16;5.13;;;4.83;;
8622;SDS011;4349;47.552;8.904;2022-08-24T02:32:44;5.00;;;4.70;;
8622;SDS011;4349;47.552;8.904;2022-08-24T02:35:12;5.20;;;4.80;;
8622;SDS011;4349;47.552;8.904;2022-08-24T02:37:40;4.60;;;4.40;;
8622;SDS011;4349;47.552;8.904;2022-08-24T02:40:11;5.43;;;5.03;;
8622;SDS011;4349;47.552;8.904;2022-08-24T02:42:39;4.73;;;4.53;;
8622;SDS011;4349;47.552;8.904;2022-08-24T02:45:08;5.03;;;4.73;;
8622;SDS011;4349;47.552;8.904;2022-08-24T02:47:38;4.90;;;4.70;;
8622;SDS011;4349;47.552;8.904;2022-08-24T02:50:06;5.00;;;4.70;;
8622;SDS011;4349;47.552;8.904;2022-08-24T02:52:34;4.70;;;4.50;;
8622;SDS011;4349;47.552;8.904;2022-08-24T02:55:03;4.73;;;4.53;;
8622;SDS011;4349;47.552;8.904;2022-08-24T02:57:31;4.50;;;4.30;;
8622;SDS011;4349;47.552;8.904;2022-08-24T02:59:58;4.57;;;4.37;;
8622;SDS011;4349;47.552;8.904;2022-08-24T03:02:26;5.03;;;4.80;;
8622;SDS011;4349;47.552;8.904;2022-08-24T03:04:55;4.80;;;4.60;;
8622;SDS011;4349;47.552;8.904;2022-08-24T03:07:23;4.73;;;4.53;;
8622;SDS011;4349;47.552;8.904;2022-08-24T03:09:51;4.80;;;4.60;;
8622;SDS011;4349;47.552;8.904;2022-08-24T03:12:18;5.60;;;5.20;;
8622;SDS011;4349;47.552;8.904;2022-08-24T03:14:46;5.43;;;5.13;;
8622;SDS011;4349;47.552;8.904;2022-08-24T03:17:14;4.97;;;4.70;;
8622;SDS011;4349;47.552;8.904;2022-08-24T03:19:42;5.37;;;5.07;;
8622;SDS011;4349;47.552;8.904;2022-08-24T03:22:11;5.30;;;5.00;;
8622;SDS011;4349;47.552;8.904;2022-08-24T03:24:40;5.53;;;5.20;;
8622;SDS011;4349;47.552;8.904;2022-08-24T03:27:09;4.90;;;4.60;;
8622;SDS011;4349;47.552;8.904;2022-08-24T03:29:37;5.50;;;5.20;;
8622;SDS011;4349;47.552;8.904;2022-08-24T03:32:05;5.23;;;4.97;;
8622;SDS011;4349;47.552;8.904;2022-08-24T03:34:33;5.10;;;4.83;;
8622;SDS011;4349;47.552;8.904;2022-08-24T03:37:01;5.20;;;4.90;;
8622;SDS011;4349;47.552;8.904;2022-08-24T03:39:30;5.57;;;5.17;;
8622;SDS011;4349;47.552;8.904;2022-08-24T03:41:58;5.60;;;5.30;;
8622;SDS011;4349;47.552;8.904;2022-08-24T03:44:26;5.60;;;5.17;;
8622;SDS011;4349;47.552;8.904;2022-08-24T03:46:53;5.70;;;5.40;;
8622;SDS011;4349;47.552;8.904;2022-08-24T03:49:23;5.47;;;5.17;;
8622;SDS011;4349;47.552;8.904;2022-08-24T03:51:51;5.20;;;4.90;;
8622;SDS011;4349;47.552;8.904;2022-08-24T03:54:21;5.63;;;5.30;;
8622;SDS011;4349;47.552;8.904;2022-08-24T03:56:50;6.67;;;6.00;;
8622;SDS011;4349;47.552;8.904;2022-08-24T03:59:18;5.60;;;5.20;;
8622;SDS011;4349;47.552;8.904;2022-08-24T04:01:49;5.73;;;5.23;;
8622;SDS011;4349;47.552;8.904;2022-08-24T04:04:17;5.40;;;5.10;;
8622;SDS011;4349;47.552;8.904;2022-08-24T04:06:44;5.60;;;5.30;;
8622;SDS011;4349;47.552;8.904;2022-08-24T04:09:12;5.90;;;5.50;;
8622;SDS011;4349;47.552;8.904;2022-08-24T04:11:44;5.70;;;5.40;;
8622;SDS011;4349;47.552;8.904;2022-08-24T04:14:15;5.63;;;5.33;;
8622;SDS011;4349;47.552;8.904;2022-08-24T04:16:57;5.80;;;5.50;;
8622;SDS011;4349;47.552;8.904;2022-08-24T04:19:30;6.13;;;5.43;;
8622;SDS011;4349;47.552;8.904;2022-08-24T04:21:59;5.97;;;5.67;;
8622;SDS011;4349;47.552;8.904;2022-08-24T04:24:28;6.63;;;6.20;;
8622;SDS011;4349;47.552;8.904;2022-08-24T04:26:57;6.03;;;5.60;;
8622;SDS011;4349;47.552;8.904;2022-08-24T04:29:26;5.77;;;5.37;;
8622;SDS011;4349;47.552;8.904;2022-08-24T04:31:53;5.43;;;5.13;;
8622;SDS011;4349;47.552;8.904;2022-08-24T04:34:22;5.87;;;5.57;;
8622;SDS011;4349;47.552;8.904;2022-08-24T04:36:49;5.57;;;5.27;;
8622;SDS011;4349;47.552;8.904;2022-08-24T04:39:17;6.13;;;5.83;;
8622;SDS011;4349;47.552;8.904;2022-08-24T04:42:04;5.80;;;5.50;;
8622;SDS011;4349;47.552;8.904;2022-08-24T04:44:38;5.60;;;5.30;;
8622;SDS011;4349;47.552;8.904;2022-08-24T04:47:06;5.70;;;5.40;;
8622;SDS011;4349;47.552;8.904;2022-08-24T04:49:36;6.03;;;5.53;;
8622;SDS011;4349;47.552;8.904;2022-08-24T04:52:04;5.80;;;5.50;;
8622;SDS011;4349;47.552;8.904;2022-08-24T04:54:33;6.13;;;5.73;;
8622;SDS011;4349;47.552;8.904;2022-08-24T04:57:06;5.73;;;5.20;;
8622;SDS011;4349;47.552;8.904;2022-08-24T04:59:35;6.10;;;5.80;;
8622;SDS011;4349;47.552;8.904;2022-08-24T05:02:04;6.17;;;5.87;;
8622;SDS011;4349;47.552;8.904;2022-08-24T05:04:31;5.87;;;5.57;;
8622;SDS011;4349;47.552;8.904;2022-08-24T05:06:59;5.57;;;5.27;;
8622;SDS011;4349;47.552;8.904;2022-08-24T05:09:26;5.87;;;5.57;;
8622;SDS011;4349;47.552;8.904;2022-08-24T05:11:57;5.17;;;4.90;;
8622;SDS011;4349;47.552;8.904;2022-08-24T05:14:28;5.87;;;5.50;;
8622;SDS011;4349;47.552;8.904;2022-08-24T05:16:56;5.77;;;5.57;;
8622;SDS011;4349;47.552;8.904;2022-08-24T05:19:24;5.47;;;5.17;;
8622;SDS011;4349;47.552;8.904;2022-08-24T05:21:52;5.40;;;5.07;;
8622;SDS011;4349;47.552;8.904;2022-08-24T05:24:20;5.57;;;5.27;;
8622;SDS011;4349;47.552;8.904;2022-08-24T05:26:48;5.33;;;5.10;;
8622;SDS011;4349;47.552;8.904;2022-08-24T05:29:19;5.90;;;5.50;;
8622;SDS011;4349;47.552;8.904;2022-08-24T05:31:48;6.13;;;5.83;;
8622;SDS011;4349;47.552;8.904;2022-08-24T05:34:16;5.63;;;5.23;;
8622;SDS011;4349;47.552;8.904;2022-08-24T05:36:45;6.00;;;5.60;;
8622;SDS011;4349;47.552;8.904;2022-08-24T05:39:25;6.27;;;5.87;;
8622;SDS011;4349;47.552;8.904;2022-08-24T05:41:55;6.40;;;6.10;;
8622;SDS011;4349;47.552;8.904;2022-08-24T05:44:26;5.80;;;5.50;;
8622;SDS011;4349;47.552;8.904;2022-08-24T05:46:59;6.50;;;6.10;;
8622;SDS011;4349;47.552;8.904;2022-08-24T05:49:28;6.43;;;6.03;;
8622;SDS011;4349;47.552;8.904;2022-08-24T05:52:15;6.40;;;6.00;;
8622;SDS011;4349;47.552;8.904;2022-08-24T05:54:50;6.30;;;6.00;;
8622;SDS011;4349;47.552;8.904;2022-08-24T05:57:18;6.63;;;6.13;;
8622;SDS011;4349;47.552;8.904;2022-08-24T06:00:03;6.20;;;5.90;;
8622;SDS011;4349;47.552;8.904;2022-08-24T06:02:41;6.17;;;5.80;;
8622;SDS011;4349;47.552;8.904;2022-08-24T06:05:09;5.70;;;5.40;;
8622;SDS011;4349;47.552;8.904;2022-08-24T06:07:38;6.13;;;5.70;;
8622;SDS011;4349;47.552;8.904;2022-08-24T06:10:06;6.13;;;5.70;;
8622;SDS011;4349;47.552;8.904;2022-08-24T06:12:54;5.67;;;5.27;;
8622;SDS011;4349;47.552;8.904;2022-08-24T06:15:22;5.70;;;5.47;;
8622;SDS011;4349;47.552;8.904;2022-08-24T06:17:50;5.87;;;5.47;;
8622;SDS011;4349;47.552;8.904;2022-08-24T06:20:18;5.67;;;5.27;;
8622;SDS011;4349;47.552;8.904;2022-08-24T06:22:47;5.77;;;5.33;;
8622;SDS011;4349;47.552;8.904;2022-08-24T06:25:15;5.47;;;5.07;;
8622;SDS011;4349;47.552;8.904;2022-08-24T06:28:01;5.57;;;5.27;;
8622;SDS011;4349;47.552;8.904;2022-08-24T06:30:29;5.73;;;5.43;;
8622;SDS011;4349;47.552;8.904;2022-08-24T06:33:10;5.80;;;5.33;;
8622;SDS011;4349;47.552;8.904;2022-08-24T06:35:42;6.10;;;5.60;;
8622;SDS011;4349;47.552;8.904;2022-08-24T06:38:14;5.50;;;5.20;;
8622;SDS011;4349;47.552;8.904;2022-08-24T06:40:45;5.50;;;5.20;;
8622;SDS011;4349;47.552;8.904;2022-08-24T06:43:13;5.63;;;5.33;;
8622;SDS011;4349;47.552;8.904;2022-08-24T06:45:48;5.73;;;5.33;;
8622;SDS011;4349;47.552;8.904;2022-08-24T06:48:17;4.93;;;4.63;;
8622;SDS011;4349;47.552;8.904;2022-08-24T06:50:45;5.67;;;5.23;;
8622;SDS011;4349;47.552;8.904;2022-08-24T06:53:15;6.57;;;5.23;;
8622;SDS011;4349;47.552;8.904;2022-08-24T06:55:45;5.87;;;5.37;;
8622;SDS011;4349;47.552;8.904;2022-08-24T06:58:13;5.20;;;4.80;;
8622;SDS011;4349;47.552;8.904;2022-08-24T07:00:41;5.77;;;5.47;;
8622;SDS011;4349;47.552;8.904;2022-08-24T07:03:08;5.23;;;4.93;;
8622;SDS011;4349;47.552;8.904;2022-08-24T07:05:48;5.77;;;5.47;;
8622;SDS011;4349;47.552;8.904;2022-08-24T07:08:35;5.33;;;5.13;;
8622;SDS011;4349;47.552;8.904;2022-08-24T07:11:03;5.50;;;5.20;;
8622;SDS011;4349;47.552;8.904;2022-08-24T07:13:31;6.30;;;5.90;;
8622;SDS011;4349;47.552;8.904;2022-08-24T07:15:59;6.13;;;5.67;;
8622;SDS011;4349;47.552;8.904;2022-08-24T07:18:28;5.87;;;5.57;;
8622;SDS011;4349;47.552;8.904;2022-08-24T07:20:58;6.10;;;5.70;;
8622;SDS011;4349;47.552;8.904;2022-08-24T07:23:57;6.50;;;6.07;;
8622;SDS011;4349;47.552;8.904;2022-08-24T07:26:27;6.13;;;5.70;;
8622;SDS011;4349;47.552;8.904;2022-08-24T07:28:56;5.90;;;5.57;;
8622;SDS011;4349;47.552;8.904;2022-08-24T07:31:34;5.53;;;5.13;;
8622;SDS011;4349;47.552;8.904;2022-08-24T07:34:10;5.53;;;5.13;;
8622;SDS011;4349;47.552;8.904;2022-08-24T07:36:38;6.37;;;5.93;;
8622;SDS011;4349;47.552;8.904;2022-08-24T07:39:11;6.60;;;5.53;;
8622;SDS011;4349;47.552;8.904;2022-08-24T07:41:40;5.43;;;5.03;;
8622;SDS011;4349;47.552;8.904;2022-08-24T07:44:28;5.63;;;5.13;;
8622;SDS011;4349;47.552;8.904;2022-08-24T07:46:56;5.73;;;5.43;;
8622;SDS011;4349;47.552;8.904;2022-08-24T07:49:44;5.23;;;5.03;;
8622;SDS011;4349;47.552;8.904;2022-08-24T07:52:12;6.43;;;5.80;;
8622;SDS011;4349;47.552;8.904;2022-08-24T07:54:41;10.37;;;5.80;;
8622;SDS011;4349;47.552;8.904;2022-08-24T07:57:08;9.03;;;6.43;;
8622;SDS011;4349;47.552;8.904;2022-08-24T07:59:36;6.33;;;5.40;;
8622;SDS011;4349;47.552;8.904;2022-08-24T08:02:05;6.23;;;5.73;;
8622;SDS011;4349;47.552;8.904;2022-08-24T08:04:33;4.90;;;4.60;;
8622;SDS011;4349;47.552;8.904;2022-08-24T08:07:02;4.33;;;4.13;;
8622;SDS011;4349;47.552;8.904;2022-08-24T08:09:35;5.03;;;4.70;;
8622;SDS011;4349;47.552;8.904;2022-08-24T08:12:05;4.33;;;4.10;;
8622;SDS011;4349;47.552;8.904;2022-08-24T08:14:35;4.50;;;4.30;;
8622;SDS011;4349;47.552;8.904;2022-08-24T08:17:03;4.47;;;4.27;;
8622;SDS011;4349;47.552;8.904;2022-08-24T08:19:32;4.60;;;4.40;;
8622;SDS011;4349;47.552;8.904;2022-08-24T08:21:59;4.10;;;3.80;;
8622;SDS011;4349;47.552;8.904;2022-08-24T08:25:03;4.00;;;3.90;;
8622;SDS011;4349;47.552;8.904;2022-08-24T08:27:34;3.73;;;3.60;;
8622;SDS011;4349;47.552;8.904;2022-08-24T08:30:02;4.70;;;3.83;;
8622;SDS011;4349;47.552;8.904;2022-08-24T08:32:32;4.00;;;3.80;;
8622;SDS011;4349;47.552;8.904;2022-08-24T08:34:59;3.97;;;3.77;;
8622;SDS011;4349;47.552;8.904;2022-08-24T08:37:30;4.73;;;4.33;;
8622;SDS011;4349;47.552;8.904;2022-08-24T08:39:58;3.80;;;3.57;;
8622;SDS011;4349;47.552;8.904;2022-08-24T08:42:31;3.80;;;3.60;;
8622;SDS011;4349;47.552;8.904;2022-08-24T08:45:07;3.83;;;3.63;;
8622;SDS011;4349;47.552;8.904;2022-08-24T08:47:43;3.80;;;3.50;;
8622;SDS011;4349;47.552;8.904;2022-08-24T08:50:23;3.57;;;3.47;;
8622;SDS011;4349;47.552;8.904;2022-08-24T08:55:41;4.10;;;3.90;;
8622;SDS011;4349;47.552;8.904;2022-08-24T08:58:14;3.87;;;3.57;;
8622;SDS011;4349;47.552;8.904;2022-08-24T09:00:48;5.70;;;3.60;;
8622;SDS011;4349;47.552;8.904;2022-08-24T09:06:48;3.43;;;3.23;;
8622;SDS011;4349;47.552;8.904;2022-08-24T09:12:02;3.20;;;3.10;;
8622;SDS011;4349;47.552;8.904;2022-08-24T09:17:39;3.10;;;3.00;;
8622;SDS011;4349;47.552;8.904;2022-08-24T09:20:12;3.30;;;3.20;;
8622;SDS011;4349;47.552;8.904;2022-08-24T09:22:45;3.50;;;3.37;;
8622;SDS011;4349;47.552;8.904;2022-08-24T09:25:18;3.80;;;3.60;;
8622;SDS011;4349;47.552;8.904;2022-08-24T09:28:11;3.53;;;3.30;;
8622;SDS011;4349;47.552;8.904;2022-08-24T09:30:51;3.03;;;2.93;;
8622;SDS011;4349;47.552;8.904;2022-08-24T09:33:25;3.30;;;3.10;;
8622;SDS011;4349;47.552;8.904;2022-08-24T09:35:59;3.27;;;3.17;;
8622;SDS011;4349;47.552;8.904;2022-08-24T09:38:34;2.93;;;2.70;;
8622;SDS011;4349;47.552;8.904;2022-08-24T09:41:14;2.80;;;2.70;;
8622;SDS011;4349;47.552;8.904;2022-08-24T09:43:58;2.80;;;2.70;;
8622;SDS011;4349;47.552;8.904;2022-08-24T09:46:47;3.10;;;2.90;;
8622;SDS011;4349;47.552;8.904;2022-08-24T09:55:10;2.80;;;2.70;;
8622;SDS011;4349;47.552;8.904;2022-08-24T09:57:47;2.60;;;2.50;;
8622;SDS011;4349;47.552;8.904;2022-08-24T10:00:27;2.97;;;2.87;;
8622;SDS011;4349;47.552;8.904;2022-08-24T10:03:02;2.97;;;2.83;;
8622;SDS011;4349;47.552;8.904;2022-08-24T10:08:18;3.13;;;2.93;;
8622;SDS011;4349;47.552;8.904;2022-08-24T10:10:50;3.30;;;2.70;;
8622;SDS011;4349;47.552;8.904;2022-08-24T10:13:22;3.20;;;2.80;;
8622;SDS011;4349;47.552;8.904;2022-08-24T10:15:55;2.80;;;2.70;;
8622;SDS011;4349;47.552;8.904;2022-08-24T10:18:34;2.80;;;2.70;;
8622;SDS011;4349;47.552;8.904;2022-08-24T10:21:10;2.73;;;2.63;;
8622;SDS011;4349;47.552;8.904;2022-08-24T10:23:49;3.00;;;2.70;;
8622;SDS011;4349;47.552;8.904;2022-08-24T10:26:22;2.97;;;2.70;;
8622;SDS011;4349;47.552;8.904;2022-08-24T10:29:04;2.67;;;2.57;;
8622;SDS011;4349;47.552;8.904;2022-08-24T10:31:39;2.80;;;2.70;;
8622;SDS011;4349;47.552;8.904;2022-08-24T10:34:15;2.70;;;2.60;;
8622;SDS011;4349;47.552;8.904;2022-08-24T10:36:59;3.17;;;2.97;;
8622;SDS011;4349;47.552;8.904;2022-08-24T10:39:43;3.57;;;2.37;;
8622;SDS011;4349;47.552;8.904;2022-08-24T10:42:32;2.57;;;2.47;;
8622;SDS011;4349;47.552;8.904;2022-08-24T10:45:28;2.23;;;2.20;;
8622;SDS011;4349;47.552;8.904;2022-08-24T10:48:03;2.50;;;2.40;;
8622;SDS011;4349;47.552;8.904;2022-08-24T10:50:39;3.00;;;2.50;;
8622;SDS011;4349;47.552;8.904;2022-08-24T10:53:19;2.50;;;2.40;;
8622;SDS011;4349;47.552;8.904;2022-08-24T10:55:53;2.27;;;2.07;;
8622;SDS011;4349;47.552;8.904;2022-08-24T10:58:39;2.30;;;2.10;;
8622;SDS011;4349;47.552;8.904;2022-08-24T11:01:19;2.35;;;2.30;;
8622;SDS011;4349;47.552;8.904;2022-08-24T11:03:48;2.00;;;1.90;;
8622;SDS011;4349;47.552;8.904;2022-08-24T11:06:17;2.25;;;2.15;;
8622;SDS011;4349;47.552;8.904;2022-08-24T11:08:52;2.40;;;2.30;;
8622;SDS011;4349;47.552;8.904;2022-08-24T11:11:25;2.50;;;2.40;;
8622;SDS011;4349;47.552;8.904;2022-08-24T11:13:55;2.17;;;2.00;;
8622;SDS011;4349;47.552;8.904;2022-08-24T11:16:25;2.30;;;2.20;;
8622;SDS011;4349;47.552;8.904;2022-08-24T11:18:54;1.98;;;1.90;;
8622;SDS011;4349;47.552;8.904;2022-08-24T11:21:33;2.03;;;2.03;;
8622;SDS011;4349;47.552;8.904;2022-08-24T11:24:02;1.98;;;1.95;;
8622;SDS011;4349;47.552;8.904;2022-08-24T11:26:30;2.10;;;2.00;;
8622;SDS011;4349;47.552;8.904;2022-08-24T11:28:59;2.30;;;2.30;;
8622;SDS011;4349;47.552;8.904;2022-08-24T11:31:28;2.15;;;2.05;;
8622;SDS011;4349;47.552;8.904;2022-08-24T11:34:02;1.90;;;1.90;;
8622;SDS011;4349;47.552;8.904;2022-08-24T11:36:31;2.45;;;2.30;;
8622;SDS011;4349;47.552;8.904;2022-08-24T11:39:09;1.80;;;1.75;;
8622;SDS011;4349;47.552;8.904;2022-08-24T11:41:40;2.10;;;2.08;;
8622;SDS011;4349;47.552;8.904;2022-08-24T11:44:11;1.98;;;1.98;;
8622;SDS011;4349;47.552;8.904;2022-08-24T11:46:42;2.20;;;2.10;;
8622;SDS011;4349;47.552;8.904;2022-08-24T11:49:14;2.25;;;2.15;;
8622;SDS011;4349;47.552;8.904;2022-08-24T11:51:59;1.90;;;1.90;;
8622;SDS011;4349;47.552;8.904;2022-08-24T11:54:31;2.00;;;2.00;;
8622;SDS011;4349;47.552;8.904;2022-08-24T11:57:07;1.95;;;1.95;;
8622;SDS011;4349;47.552;8.904;2022-08-24T11:59:41;2.53;;;2.42;;
8622;SDS011;4349;47.552;8.904;2022-08-24T12:02:11;2.20;;;2.10;;
8622;SDS011;4349;47.552;8.904;2022-08-24T12:04:45;1.90;;;1.90;;
8622;SDS011;4349;47.552;8.904;2022-08-24T12:07:19;1.95;;;1.85;;
8622;SDS011;4349;47.552;8.904;2022-08-24T12:09:55;1.92;;;1.83;;
8622;SDS011;4349;47.552;8.904;2022-08-24T12:12:26;1.80;;;1.80;;
8622;SDS011;4349;47.552;8.904;2022-08-24T12:15:01;3.50;;;2.05;;
8622;SDS011;4349;47.552;8.904;2022-08-24T12:17:32;1.75;;;1.75;;
8622;SDS011;4349;47.552;8.904;2022-08-24T12:20:03;2.13;;;2.03;;
8622;SDS011;4349;47.552;8.904;2022-08-24T12:22:31;1.90;;;1.80;;
8622;SDS011;4349;47.552;8.904;2022-08-24T12:25:00;2.13;;;2.03;;
8622;SDS011;4349;47.552;8.904;2022-08-24T12:27:49;1.73;;;1.73;;
8622;SDS011;4349;47.552;8.904;2022-08-24T12:30:19;3.17;;;1.80;;
8622;SDS011;4349;47.552;8.904;2022-08-24T12:32:49;2.33;;;1.90;;
8622;SDS011;4349;47.552;8.904;2022-08-24T12:35:20;2.20;;;2.00;;
8622;SDS011;4349;47.552;8.904;2022-08-24T12:37:52;1.70;;;1.70;;
8622;SDS011;4349;47.552;8.904;2022-08-24T12:40:23;1.60;;;1.60;;
8622;SDS011;4349;47.552;8.904;2022-08-24T12:42:54;1.70;;;1.67;;
8622;SDS011;4349;47.552;8.904;2022-08-24T12:45:26;1.80;;;1.70;;
8622;SDS011;4349;47.552;8.904;2022-08-24T12:47:55;1.80;;;1.80;;
8622;SDS011;4349;47.552;8.904;2022-08-24T12:50:26;1.92;;;1.83;;
8622;SDS011;4349;47.552;8.904;2022-08-24T12:55:56;1.75;;;1.70;;
8622;SDS011;4349;47.552;8.904;2022-08-24T12:58:33;1.58;;;1.58;;
8622;SDS011;4349;47.552;8.904;2022-08-24T13:01:22;2.08;;;1.80;;
8622;SDS011;4349;47.552;8.904;2022-08-24T13:04:03;1.88;;;1.80;;
8622;SDS011;4349;47.552;8.904;2022-08-24T13:06:35;2.53;;;1.92;;
8622;SDS011;4349;47.552;8.904;2022-08-24T13:09:05;1.80;;;1.80;;
8622;SDS011;4349;47.552;8.904;2022-08-24T13:11:35;1.98;;;1.90;;
8622;SDS011;4349;47.552;8.904;2022-08-24T13:14:05;1.60;;;1.60;;
8622;SDS011;4349;47.552;8.904;2022-08-24T13:19:36;1.70;;;1.60;;
8622;SDS011;4349;47.552;8.904;2022-08-24T13:24:58;1.48;;;1.42;;
8622;SDS011;4349;47.552;8.904;2022-08-24T13:30:18;1.80;;;1.70;;
8622;SDS011;4349;47.552;8.904;2022-08-24T13:32:48;1.60;;;1.60;;
8622;SDS011;4349;47.552;8.904;2022-08-24T13:35:31;1.70;;;1.70;;
8622;SDS011;4349;47.552;8.904;2022-08-24T13:40:46;1.73;;;1.73;;
8622;SDS011;4349;47.552;8.904;2022-08-24T13:43:18;1.90;;;1.80;;
8622;SDS011;4349;47.552;8.904;2022-08-24T13:45:48;1.85;;;1.75;;
8622;SDS011;4349;47.552;8.904;2022-08-24T13:48:21;1.40;;;1.40;;
8622;SDS011;4349;47.552;8.904;2022-08-24T13:51:03;1.63;;;1.63;;
8622;SDS011;4349;47.552;8.904;2022-08-24T13:53:36;1.70;;;1.55;;
8622;SDS011;4349;47.552;8.904;2022-08-24T13:56:17;1.55;;;1.55;;
8622;SDS011;4349;47.552;8.904;2022-08-24T13:58:59;1.52;;;1.52;;
8622;SDS011;4349;47.552;8.904;2022-08-24T14:01:33;1.40;;;1.40;;
8622;SDS011;4349;47.552;8.904;2022-08-24T14:06:48;1.70;;;1.70;;
8622;SDS011;4349;47.552;8.904;2022-08-24T14:09:20;1.30;;;1.30;;
8622;SDS011;4349;47.552;8.904;2022-08-24T14:12:03;1.70;;;1.60;;
8622;SDS011;4349;47.552;8.904;2022-08-24T14:17:21;1.65;;;1.55;;
8622;SDS011;4349;47.552;8.904;2022-08-24T14:20:09;1.40;;;1.40;;
8622;SDS011;4349;47.552;8.904;2022-08-24T14:22:54;1.65;;;1.55;;
8622;SDS011;4349;47.552;8.904;2022-08-24T14:25:26;1.40;;;1.30;;
8622;SDS011;4349;47.552;8.904;2022-08-24T14:30:39;1.75;;;1.65;;
8622;SDS011;4349;47.552;8.904;2022-08-24T14:33:11;1.83;;;1.73;;
8622;SDS011;4349;47.552;8.904;2022-08-24T14:35:46;1.50;;;1.50;;
8622;SDS011;4349;47.552;8.904;2022-08-24T14:38:30;1.63;;;1.63;;
8622;SDS011;4349;47.552;8.904;2022-08-24T14:41:02;1.50;;;1.50;;
8622;SDS011;4349;47.552;8.904;2022-08-24T14:43:48;1.77;;;1.60;;
8622;SDS011;4349;47.552;8.904;2022-08-24T14:46:22;1.65;;;1.55;;
8622;SDS011;4349;47.552;8.904;2022-08-24T14:49:00;2.47;;;1.70;;
8622;SDS011;4349;47.552;8.904;2022-08-24T14:51:37;1.77;;;1.70;;
8622;SDS011;4349;47.552;8.904;2022-08-24T14:54:13;1.63;;;1.63;;
8622;SDS011;4349;47.552;8.904;2022-08-24T14:56:52;1.55;;;1.55;;
8622;SDS011;4349;47.552;8.904;2022-08-24T14:59:26;1.67;;;1.58;;
8622;SDS011;4349;47.552;8.904;2022-08-24T15:01:58;1.90;;;1.80;;
8622;SDS011;4349;47.552;8.904;2022-08-24T15:04:42;2.05;;;1.63;;
8622;SDS011;4349;47.552;8.904;2022-08-24T15:07:22;1.80;;;1.80;;
8622;SDS011;4349;47.552;8.904;2022-08-24T15:09:52;1.60;;;1.58;;
8622;SDS011;4349;47.552;8.904;2022-08-24T15:12:25;1.60;;;1.60;;
8622;SDS011;4349;47.552;8.904;2022-08-24T15:14:57;1.60;;;1.50;;
8622;SDS011;4349;47.552;8.904;2022-08-24T15:17:35;1.65;;;1.55;;
8622;SDS011;4349;47.552;8.904;2022-08-24T15:20:07;1.30;;;1.30;;
8622;SDS011;4349;47.552;8.904;2022-08-24T15:22:37;1.50;;;1.40;;
8622;SDS011;4349;47.552;8.904;2022-08-24T15:25:12;1.60;;;1.60;;
8622;SDS011;4349;47.552;8.904;2022-08-24T15:27:45;1.83;;;1.77;;
8622;SDS011;4349;47.552;8.904;2022-08-24T15:30:20;1.60;;;1.60;;
8622;SDS011;4349;47.552;8.904;2022-08-24T15:32:50;3.55;;;1.73;;
8622;SDS011;4349;47.552;8.904;2022-08-24T15:35:22;1.70;;;1.60;;
8622;SDS011;4349;47.552;8.904;2022-08-24T15:37:51;1.60;;;1.60;;
8622;SDS011;4349;47.552;8.904;2022-08-24T15:40:22;1.50;;;1.50;;
8622;SDS011;4349;47.552;8.904;2022-08-24T15:42:52;1.88;;;1.77;;
8622;SDS011;4349;47.552;8.904;2022-08-24T15:45:20;1.60;;;1.60;;
8622;SDS011;4349;47.552;8.904;2022-08-24T15:47:48;1.70;;;1.60;;
8622;SDS011;4349;47.552;8.904;2022-08-24T15:50:19;1.90;;;1.90;;
8622;SDS011;4349;47.552;8.904;2022-08-24T15:52:49;1.80;;;1.70;;
8622;SDS011;4349;47.552;8.904;2022-08-24T15:55:36;2.15;;;2.05;;
8622;SDS011;4349;47.552;8.904;2022-08-24T15:58:17;1.50;;;1.50;;
8622;SDS011;4349;47.552;8.904;2022-08-24T16:00:47;1.80;;;1.80;;
8622;SDS011;4349;47.552;8.904;2022-08-24T16:03:43;1.50;;;1.50;;
8622;SDS011;4349;47.552;8.904;2022-08-24T16:06:17;1.60;;;1.60;;
8622;SDS011;4349;47.552;8.904;2022-08-24T16:08:49;2.08;;;1.98;;
8622;SDS011;4349;47.552;8.904;2022-08-24T16:11:25;1.73;;;1.73;;
8622;SDS011;4349;47.552;8.904;2022-08-24T16:13:54;1.98;;;1.98;;
8622;SDS011;4349;47.552;8.904;2022-08-24T16:16:29;1.88;;;1.88;;
8622;SDS011;4349;47.552;8.904;2022-08-24T16:18:58;7.55;;;5.25;;
8622;SDS011;4349;47.552;8.904;2022-08-24T16:21:33;2.00;;;1.90;;
8622;SDS011;4349;47.552;8.904;2022-08-24T16:24:04;1.67;;;1.67;;
8622;SDS011;4349;47.552;8.904;2022-08-24T16:32:04;3.63;;;3.42;;
8622;SDS011;4349;47.552;8.904;2022-08-24T16:34:38;22.38;;;19.95;;